PSV weather

Papa Stour Airport
Papa Stour Island, Scotland, United Kingdom

Public forecast

Using degrees Celsius for public forecast. Weather courtesy of forecast.io.

Closest aviation weather report (METAR) to Papa Stour Airport

Closest report is Scatsta Airport, 13.5 nm (25.1 km) ENE. Retrieved 2019/10/21 06:20 UTC (0 seconds ago):

EGPM 210620Z 19008KT 9999 FEW026 BKN030 07/03 Q1019 NOSIG

Closest aviation forecast (TAF) to Papa Stour Airport

Forecast is more than 12 hours old.

Closest forecast is Scatsta Airport, 13.5 nm (25.1 km) ENE. Retrieved 2013/04/29 03:39 UTC (6 years ago):

TAF TAF EGPM 290337Z 2903/2915 22005KT 9999 SCT030 PROB30 TEMPO 2903/2906 7000 SHRAGS BECMG 2906/2909 32015KT PROB40 TEMPO 2906/2915 6000 SHRA SHGS BKN012CB